sensor_id;sensor_type;location;lat;lon;timestamp;pressure;altitude;pressure_sealevel;temperature;humidity
34185;BME280;20454;48.100;11.776;2023-04-02T00:00:33;94623.69;;;8.13;80.53
34185;BME280;20454;48.100;11.776;2023-04-02T00:05:39;94627.44;;;8.08;80.33
34185;BME280;20454;48.100;11.776;2023-04-02T00:08:20;94629.72;;;8.06;80.26
34185;BME280;20454;48.100;11.776;2023-04-02T00:10:52;94630.56;;;8.07;80.68
34185;BME280;20454;48.100;11.776;2023-04-02T00:13:38;94621.56;;;8.10;80.42
34185;BME280;20454;48.100;11.776;2023-04-02T00:16:07;94628.41;;;8.04;80.95
34185;BME280;20454;48.100;11.776;2023-04-02T00:18:38;94629.09;;;8.01;81.52
34185;BME280;20454;48.100;11.776;2023-04-02T00:23:40;94639.50;;;8.04;81.08
34185;BME280;20454;48.100;11.776;2023-04-02T00:26:38;94632.66;;;8.01;81.85
34185;BME280;20454;48.100;11.776;2023-04-02T00:29:09;94639.34;;;8.00;81.14
34185;BME280;20454;48.100;11.776;2023-04-02T00:31:37;94635.41;;;8.01;80.96
34185;BME280;20454;48.100;11.776;2023-04-02T00:34:07;94630.41;;;7.95;81.77
34185;BME280;20454;48.100;11.776;2023-04-02T00:36:33;94646.69;;;7.96;81.85
34185;BME280;20454;48.100;11.776;2023-04-02T00:39:01;94648.94;;;7.94;82.16
34185;BME280;20454;48.100;11.776;2023-04-02T00:41:28;94644.72;;;7.97;81.55
34185;BME280;20454;48.100;11.776;2023-04-02T00:43:57;94643.25;;;7.91;81.56
34185;BME280;20454;48.100;11.776;2023-04-02T00:46:29;94634.47;;;7.89;82.02
34185;BME280;20454;48.100;11.776;2023-04-02T00:49:06;94644.06;;;7.91;81.91
34185;BME280;20454;48.100;11.776;2023-04-02T00:51:35;94638.06;;;7.89;81.73
34185;BME280;20454;48.100;11.776;2023-04-02T00:54:04;94644.56;;;7.93;81.63
34185;BME280;20454;48.100;11.776;2023-04-02T00:56:39;94647.50;;;7.97;81.35
34185;BME280;20454;48.100;11.776;2023-04-02T00:59:16;94643.41;;;7.94;81.42
34185;BME280;20454;48.100;11.776;2023-04-02T01:01:43;94647.66;;;7.92;81.63
34185;BME280;20454;48.100;11.776;2023-04-02T01:04:29;94647.50;;;7.88;81.22
34185;BME280;20454;48.100;11.776;2023-04-02T01:06:56;94657.28;;;7.86;81.16
34185;BME280;20454;48.100;11.776;2023-04-02T01:15:20;94654.84;;;7.67;82.38
34185;BME280;20454;48.100;11.776;2023-04-02T01:18:20;94654.84;;;7.67;82.66
34185;BME280;20454;48.100;11.776;2023-04-02T01:21:15;94661.84;;;7.65;83.23
34185;BME280;20454;48.100;11.776;2023-04-02T01:24:06;94667.69;;;7.63;83.39
34185;BME280;20454;48.100;11.776;2023-04-02T01:29:37;94655.63;;;7.59;83.02
34185;BME280;20454;48.100;11.776;2023-04-02T01:32:06;94664.44;;;7.61;83.29
34185;BME280;20454;48.100;11.776;2023-04-02T01:34:32;94663.91;;;7.59;83.41
34185;BME280;20454;48.100;11.776;2023-04-02T01:42:23;94659.53;;;7.67;83.68
34185;BME280;20454;48.100;11.776;2023-04-02T01:44:51;94668.69;;;7.67;83.34
34185;BME280;20454;48.100;11.776;2023-04-02T01:47:21;94671.25;;;7.72;82.59
34185;BME280;20454;48.100;11.776;2023-04-02T01:50:02;94666.06;;;7.71;82.61
34185;BME280;20454;48.100;11.776;2023-04-02T01:52:39;94666.38;;;7.69;82.69
34185;BME280;20454;48.100;11.776;2023-04-02T01:55:10;94673.06;;;7.77;83.16
34185;BME280;20454;48.100;11.776;2023-04-02T01:57:41;94676.81;;;7.81;82.22
34185;BME280;20454;48.100;11.776;2023-04-02T06:02:04;94891.22;;;7.66;83.63
34185;BME280;20454;48.100;11.776;2023-04-02T06:04:55;94896.16;;;7.69;83.28
34185;BME280;20454;48.100;11.776;2023-04-02T06:07:25;94879.19;;;7.62;83.15
34185;BME280;20454;48.100;11.776;2023-04-02T06:09:59;94898.13;;;7.77;83.18
34185;BME280;20454;48.100;11.776;2023-04-02T06:12:34;94897.31;;;7.77;83.22
34185;BME280;20454;48.100;11.776;2023-04-02T06:15:02;94902.22;;;7.80;82.86
34185;BME280;20454;48.100;11.776;2023-04-02T06:17:32;94904.84;;;7.85;83.11
34185;BME280;20454;48.100;11.776;2023-04-02T06:20:11;94904.50;;;7.86;82.03
34185;BME280;20454;48.100;11.776;2023-04-02T06:22:39;94908.09;;;7.87;82.04
34185;BME280;20454;48.100;11.776;2023-04-02T06:25:14;94908.78;;;7.92;82.71
34185;BME280;20454;48.100;11.776;2023-04-02T06:27:42;94911.84;;;7.91;81.64
34185;BME280;20454;48.100;11.776;2023-04-02T06:30:17;94912.03;;;7.94;82.04
34185;BME280;20454;48.100;11.776;2023-04-02T06:32:44;94909.13;;;7.99;81.50
34185;BME280;20454;48.100;11.776;2023-04-02T06:35:13;94926.75;;;8.03;81.74
34185;BME280;20454;48.100;11.776;2023-04-02T06:37:45;94915.84;;;8.07;81.92
34185;BME280;20454;48.100;11.776;2023-04-02T06:40:56;94917.47;;;8.08;81.48
34185;BME280;20454;48.100;11.776;2023-04-02T06:45:58;94925.47;;;8.18;80.92
34185;BME280;20454;48.100;11.776;2023-04-02T06:48:26;94925.22;;;8.28;79.61
34185;BME280;20454;48.100;11.776;2023-04-02T06:51:08;94929.44;;;8.25;80.02
34185;BME280;20454;48.100;11.776;2023-04-02T06:53:47;94929.28;;;8.22;80.62
34185;BME280;20454;48.100;11.776;2023-04-02T06:56:38;94932.56;;;8.32;79.39
34185;BME280;20454;48.100;11.776;2023-04-02T06:59:05;94941.53;;;8.38;78.88
34185;BME280;20454;48.100;11.776;2023-04-02T07:04:10;94948.09;;;8.42;78.86
34185;BME280;20454;48.100;11.776;2023-04-02T07:06:36;94937.97;;;8.46;79.38
34185;BME280;20454;48.100;11.776;2023-04-02T07:09:02;94945.19;;;8.64;78.60
34185;BME280;20454;48.100;11.776;2023-04-02T07:11:28;94945.03;;;8.77;77.30
34185;BME280;20454;48.100;11.776;2023-04-02T07:13:54;94951.25;;;8.83;77.63
34185;BME280;20454;48.100;11.776;2023-04-02T07:16:22;94957.81;;;9.04;76.05
34185;BME280;20454;48.100;11.776;2023-04-02T07:18:50;94955.81;;;9.04;76.17
34185;BME280;20454;48.100;11.776;2023-04-02T07:21:16;94963.19;;;9.17;75.80
34185;BME280;20454;48.100;11.776;2023-04-02T07:23:42;94969.22;;;9.28;74.90
34185;BME280;20454;48.100;11.776;2023-04-02T07:26:11;94962.88;;;9.27;75.38
34185;BME280;20454;48.100;11.776;2023-04-02T07:28:37;94961.69;;;9.37;74.26
34185;BME280;20454;48.100;11.776;2023-04-02T07:31:03;94969.53;;;9.43;73.68
34185;BME280;20454;48.100;11.776;2023-04-02T07:33:34;94973.28;;;9.55;74.16
34185;BME280;20454;48.100;11.776;2023-04-02T07:35:59;94979.50;;;9.61;73.43
34185;BME280;20454;48.100;11.776;2023-04-02T09:45:24;95055.84;;;13.73;55.81
34185;BME280;20454;48.100;11.776;2023-04-02T09:47:53;95065.41;;;13.72;55.68
34185;BME280;20454;48.100;11.776;2023-04-02T09:52:46;95069.75;;;13.85;55.65
34185;BME280;20454;48.100;11.776;2023-04-02T09:57:41;95086.31;;;14.30;54.43
34185;BME280;20454;48.100;11.776;2023-04-02T10:02:41;95089.53;;;14.44;54.29
34185;BME280;20454;48.100;11.776;2023-04-02T10:05:18;95081.97;;;14.87;52.25
34185;BME280;20454;48.100;11.776;2023-04-02T10:07:47;95089.47;;;14.98;52.07
34185;BME280;20454;48.100;11.776;2023-04-02T10:10:40;95089.97;;;15.31;50.28
34185;BME280;20454;48.100;11.776;2023-04-02T10:18:56;95082.78;;;15.03;50.46
34185;BME280;20454;48.100;11.776;2023-04-02T10:21:34;95088.91;;;14.23;51.92
34185;BME280;20454;48.100;11.776;2023-04-02T10:24:02;95083.69;;;14.09;53.41
34185;BME280;20454;48.100;11.776;2023-04-02T10:26:47;95085.66;;;14.21;54.13
34185;BME280;20454;48.100;11.776;2023-04-02T10:29:53;95082.22;;;13.88;55.63
34185;BME280;20454;48.100;11.776;2023-04-02T10:32:47;95080.22;;;13.49;55.35
34185;BME280;20454;48.100;11.776;2023-04-02T10:40:33;95093.09;;;13.77;58.04
34185;BME280;20454;48.100;11.776;2023-04-02T10:46:05;95091.78;;;13.99;55.01
34185;BME280;20454;48.100;11.776;2023-04-02T10:48:43;95104.25;;;14.01;55.54
34185;BME280;20454;48.100;11.776;2023-04-02T10:51:24;95095.78;;;14.13;54.69
34185;BME280;20454;48.100;11.776;2023-04-02T10:56:39;95099.94;;;14.43;53.76
34185;BME280;20454;48.100;11.776;2023-04-02T10:59:29;95103.03;;;14.54;52.92
34185;BME280;20454;48.100;11.776;2023-04-02T11:01:58;95111.72;;;14.37;53.28
34185;BME280;20454;48.100;11.776;2023-04-02T11:04:31;95105.72;;;14.23;54.62
34185;BME280;20454;48.100;11.776;2023-04-02T11:07:06;95102.13;;;14.10;54.51
34185;BME280;20454;48.100;11.776;2023-04-02T11:09:38;95109.09;;;14.16;54.73
34185;BME280;20454;48.100;11.776;2023-04-02T11:12:06;95108.16;;;14.12;54.69
34185;BME280;20454;48.100;11.776;2023-04-02T11:14:33;95102.94;;;14.11;51.97
34185;BME280;20454;48.100;11.776;2023-04-02T11:16:59;95113.66;;;14.09;53.30
34185;BME280;20454;48.100;11.776;2023-04-02T11:19:28;95110.50;;;14.10;54.52
34185;BME280;20454;48.100;11.776;2023-04-02T11:24:49;95104.88;;;13.83;55.34
34185;BME280;20454;48.100;11.776;2023-04-02T11:27:28;95103.94;;;13.79;55.65
34185;BME280;20454;48.100;11.776;2023-04-02T11:30:21;95107.56;;;13.55;56.45
34185;BME280;20454;48.100;11.776;2023-04-02T11:32:48;95117.59;;;13.32;58.08
34185;BME280;20454;48.100;11.776;2023-04-02T11:37:57;95124.91;;;13.01;58.82
34185;BME280;20454;48.100;11.776;2023-04-02T11:40:49;95131.16;;;12.98;57.97
34185;BME280;20454;48.100;11.776;2023-04-02T11:46:00;95132.81;;;13.11;59.72
34185;BME280;20454;48.100;11.776;2023-04-02T11:48:35;95137.47;;;13.19;59.83
34185;BME280;20454;48.100;11.776;2023-04-02T11:53:46;95133.88;;;13.30;60.63
34185;BME280;20454;48.100;11.776;2023-04-02T11:56:31;95150.75;;;13.34;62.71
34185;BME280;20454;48.100;11.776;2023-04-02T11:59:12;95146.34;;;13.33;62.33
34185;BME280;20454;48.100;11.776;2023-04-02T12:02:03;95152.28;;;13.31;63.82
34185;BME280;20454;48.100;11.776;2023-04-02T12:07:40;95146.56;;;13.16;62.60
34185;BME280;20454;48.100;11.776;2023-04-02T12:10:16;95147.84;;;13.30;63.80
34185;BME280;20454;48.100;11.776;2023-04-02T12:12:42;95151.09;;;13.44;63.97
34185;BME280;20454;48.100;11.776;2023-04-02T12:15:47;95149.84;;;13.66;62.88
34185;BME280;20454;48.100;11.776;2023-04-02T12:18:19;95157.28;;;13.86;62.32
34185;BME280;20454;48.100;11.776;2023-04-02T12:20:55;95148.28;;;14.04;61.95
34185;BME280;20454;48.100;11.776;2023-04-02T12:28:28;95159.19;;;14.73;59.65
34185;BME280;20454;48.100;11.776;2023-04-02T12:31:12;95155.91;;;14.98;58.55
34185;BME280;20454;48.100;11.776;2023-04-02T12:33:42;95157.03;;;15.24;57.71
34185;BME280;20454;48.100;11.776;2023-04-02T12:38:54;95152.63;;;15.70;54.67
34185;BME280;20454;48.100;11.776;2023-04-02T12:41:31;95160.16;;;15.50;54.71
34185;BME280;20454;48.100;11.776;2023-04-02T12:44:05;95174.63;;;15.09;57.38
34185;BME280;20454;48.100;11.776;2023-04-02T12:46:37;95180.34;;;14.58;62.08
34185;BME280;20454;48.100;11.776;2023-04-02T12:49:05;95187.91;;;14.18;64.53
34185;BME280;20454;48.100;11.776;2023-04-02T12:51:34;95195.75;;;13.65;69.44
34185;BME280;20454;48.100;11.776;2023-04-02T12:54:00;95197.22;;;13.26;72.73
34185;BME280;20454;48.100;11.776;2023-04-02T12:56:26;95199.81;;;12.99;74.74
34185;BME280;20454;48.100;11.776;2023-04-02T12:58:54;95200.03;;;12.73;76.30
34185;BME280;20454;48.100;11.776;2023-04-02T13:01:21;95200.63;;;12.46;79.24
34185;BME280;20454;48.100;11.776;2023-04-02T13:06:32;95201.28;;;12.23;81.46
34185;BME280;20454;48.100;11.776;2023-04-02T13:09:04;95194.09;;;12.22;80.88
34185;BME280;20454;48.100;11.776;2023-04-02T13:11:40;95195.53;;;12.28;80.14
34185;BME280;20454;48.100;11.776;2023-04-02T13:14:13;95201.03;;;12.36;80.16
34185;BME280;20454;48.100;11.776;2023-04-02T13:16:41;95200.44;;;12.31;79.72
34185;BME280;20454;48.100;11.776;2023-04-02T13:21:41;95205.56;;;12.00;82.04
34185;BME280;20454;48.100;11.776;2023-04-02T13:24:23;95212.63;;;11.77;83.18
34185;BME280;20454;48.100;11.776;2023-04-02T13:26:52;95206.25;;;11.68;85.66
34185;BME280;20454;48.100;11.776;2023-04-02T13:29:29;95220.41;;;11.63;86.25
34185;BME280;20454;48.100;11.776;2023-04-02T13:31:57;95221.25;;;11.46;85.97
34185;BME280;20454;48.100;11.776;2023-04-02T13:34:24;95220.19;;;11.30;86.44
34185;BME280;20454;48.100;11.776;2023-04-02T13:36:50;95224.81;;;11.18;86.98
34185;BME280;20454;48.100;11.776;2023-04-02T13:39:15;95227.63;;;11.09;87.47
34185;BME280;20454;48.100;11.776;2023-04-02T13:41:51;95226.66;;;11.05;89.35
34185;BME280;20454;48.100;11.776;2023-04-02T13:44:22;95216.50;;;11.09;91.92
34185;BME280;20454;48.100;11.776;2023-04-02T13:46:49;95226.28;;;11.15;91.78
34185;BME280;20454;48.100;11.776;2023-04-02T13:49:15;95228.91;;;11.20;90.29
34185;BME280;20454;48.100;11.776;2023-04-02T13:51:49;95219.38;;;11.30;91.06
34185;BME280;20454;48.100;11.776;2023-04-02T13:54:40;95218.50;;;11.38;90.61
34185;BME280;20454;48.100;11.776;2023-04-02T13:57:07;95229.16;;;11.44;89.91
34185;BME280;20454;48.100;11.776;2023-04-02T13:59:33;95203.94;;;11.41;90.85
34185;BME280;20454;48.100;11.776;2023-04-02T14:02:03;95220.94;;;11.48;90.72
34185;BME280;20454;48.100;11.776;2023-04-02T14:04:33;95232.38;;;11.55;90.55
34185;BME280;20454;48.100;11.776;2023-04-02T14:10:00;95228.94;;;11.58;89.76
34185;BME280;20454;48.100;11.776;2023-04-02T14:12:56;95235.97;;;11.64;89.32
34185;BME280;20454;48.100;11.776;2023-04-02T14:21:10;95236.25;;;11.71;87.18
34185;BME280;20454;48.100;11.776;2023-04-02T14:24:01;95238.50;;;11.77;89.80
34185;BME280;20454;48.100;11.776;2023-04-02T14:29:43;95243.22;;;11.85;87.31
34185;BME280;20454;48.100;11.776;2023-04-02T14:32:34;95252.25;;;11.82;86.62
34185;BME280;20454;48.100;11.776;2023-04-02T14:37:56;95277.97;;;11.42;83.86
34185;BME280;20454;48.100;11.776;2023-04-02T14:40:49;95264.94;;;11.17;85.19
34185;BME280;20454;48.100;11.776;2023-04-02T14:43:30;95267.13;;;10.94;87.09
34185;BME280;20454;48.100;11.776;2023-04-02T14:46:02;95270.41;;;10.79;89.35
34185;BME280;20454;48.100;11.776;2023-04-02T14:48:38;95282.88;;;10.65;89.33
34185;BME280;20454;48.100;11.776;2023-04-02T14:53:51;95284.81;;;10.30;91.49
34185;BME280;20454;48.100;11.776;2023-04-02T14:56:20;95285.94;;;10.21;92.12
34185;BME280;20454;48.100;11.776;2023-04-02T14:58:48;95277.94;;;10.11;94.07
34185;BME280;20454;48.100;11.776;2023-04-02T15:01:47;95294.78;;;10.14;95.46
34185;BME280;20454;48.100;11.776;2023-04-02T15:04:24;95288.22;;;10.10;94.58
34185;BME280;20454;48.100;11.776;2023-04-02T15:06:54;95289.53;;;10.04;95.97
34185;BME280;20454;48.100;11.776;2023-04-02T15:09:33;95282.44;;;9.98;96.35
34185;BME280;20454;48.100;11.776;2023-04-02T15:12:03;95297.16;;;9.99;96.76
34185;BME280;20454;48.100;11.776;2023-04-02T15:14:38;95287.16;;;9.89;97.87
34185;BME280;20454;48.100;11.776;2023-04-02T15:17:07;95288.63;;;9.87;98.45
34185;BME280;20454;48.100;11.776;2023-04-02T15:19:34;95289.94;;;9.89;99.02
34185;BME280;20454;48.100;11.776;2023-04-02T15:22:14;95299.13;;;9.90;99.70
34185;BME280;20454;48.100;11.776;2023-04-02T15:30:28;95307.94;;;9.92;99.41
34185;BME280;20454;48.100;11.776;2023-04-02T15:36:19;95306.94;;;9.88;98.27
34185;BME280;20454;48.100;11.776;2023-04-02T15:38:44;95309.72;;;9.79;99.28
34185;BME280;20454;48.100;11.776;2023-04-02T15:41:21;95313.47;;;9.83;99.32
34185;BME280;20454;48.100;11.776;2023-04-02T15:44:12;95313.09;;;9.76;99.30
34185;BME280;20454;48.100;11.776;2023-04-02T15:49:40;95323.50;;;9.62;100.00
34185;BME280;20454;48.100;11.776;2023-04-02T15:52:09;95326.16;;;9.67;100.00
34185;BME280;20454;48.100;11.776;2023-04-02T16:00:29;95341.75;;;9.47;100.00
34185;BME280;20454;48.100;11.776;2023-04-02T16:03:51;95344.47;;;9.38;100.00
34185;BME280;20454;48.100;11.776;2023-04-02T16:06:06;95349.97;;;9.30;100.00
34185;BME280;20454;48.100;11.776;2023-04-02T16:08:55;95337.94;;;9.12;100.00
34185;BME280;20454;48.100;11.776;2023-04-02T16:11:26;95351.81;;;9.12;100.00
34185;BME280;20454;48.100;11.776;2023-04-02T16:14:16;95363.38;;;9.06;100.00
34185;BME280;20454;48.100;11.776;2023-04-02T16:16:45;95363.00;;;8.99;100.00
34185;BME280;20454;48.100;11.776;2023-04-02T16:22:01;95375.63;;;8.83;100.00
34185;BME280;20454;48.100;11.776;2023-04-02T16:24:28;95375.44;;;8.79;100.00
34185;BME280;20454;48.100;11.776;2023-04-02T16:37:55;95410.91;;;8.55;100.00
34185;BME280;20454;48.100;11.776;2023-04-02T16:51:44;95432.00;;;8.29;100.00
34185;BME280;20454;48.100;11.776;2023-04-02T16:59:44;95439.81;;;8.14;100.00
34185;BME280;20454;48.100;11.776;2023-04-02T17:05:33;95452.13;;;8.08;100.00
34185;BME280;20454;48.100;11.776;2023-04-02T17:08:38;95455.81;;;8.03;100.00
34185;BME280;20454;48.100;11.776;2023-04-02T17:11:01;95458.16;;;7.96;100.00
34185;BME280;20454;48.100;11.776;2023-04-02T17:18:40;95472.81;;;7.83;100.00
34185;BME280;20454;48.100;11.776;2023-04-02T17:21:22;95480.91;;;7.80;100.00
34185;BME280;20454;48.100;11.776;2023-04-02T17:23:59;95489.31;;;7.75;100.00
34185;BME280;20454;48.100;11.776;2023-04-02T17:26:28;95498.03;;;7.68;100.00
34185;BME280;20454;48.100;11.776;2023-04-02T17:28:57;95484.06;;;7.60;100.00
34185;BME280;20454;48.100;11.776;2023-04-02T19:07:17;95683.69;;;5.89;99.71
34185;BME280;20454;48.100;11.776;2023-04-02T19:09:44;95677.13;;;5.80;99.90
34185;BME280;20454;48.100;11.776;2023-04-02T19:12:19;95681.88;;;5.69;96.64
34185;BME280;20454;48.100;11.776;2023-04-02T19:14:47;95693.47;;;5.66;96.80
34185;BME280;20454;48.100;11.776;2023-04-02T19:36:36;95734.81;;;5.28;95.29
34185;BME280;20454;48.100;11.776;2023-04-02T19:39:16;95735.69;;;5.23;95.12
34185;BME280;20454;48.100;11.776;2023-04-02T19:41:53;95740.72;;;5.11;93.14
34185;BME280;20454;48.100;11.776;2023-04-02T19:44:23;95744.88;;;5.04;93.68
34185;BME280;20454;48.100;11.776;2023-04-02T19:46:48;95753.69;;;5.01;93.53
34185;BME280;20454;48.100;11.776;2023-04-02T19:49:21;95753.47;;;4.92;93.14
34185;BME280;20454;48.100;11.776;2023-04-02T19:51:50;95757.63;;;4.85;92.92
34185;BME280;20454;48.100;11.776;2023-04-02T19:54:17;95762.88;;;4.76;92.98
34185;BME280;20454;48.100;11.776;2023-04-02T19:56:43;95763.97;;;4.75;93.79
34185;BME280;20454;48.100;11.776;2023-04-02T19:59:09;95761.78;;;4.72;93.78
34185;BME280;20454;48.100;11.776;2023-04-02T20:01:36;95771.16;;;4.71;93.01
34185;BME280;20454;48.100;11.776;2023-04-02T20:04:02;95767.03;;;4.69;92.97
34185;BME280;20454;48.100;11.776;2023-04-02T20:06:28;95765.09;;;4.69;92.83
34185;BME280;20454;48.100;11.776;2023-04-02T20:08:56;95767.88;;;4.64;93.40
34185;BME280;20454;48.100;11.776;2023-04-02T20:11:22;95769.53;;;4.65;93.79
34185;BME280;20454;48.100;11.776;2023-04-02T20:13:48;95767.88;;;4.59;93.58
34185;BME280;20454;48.100;11.776;2023-04-02T20:16:15;95786.06;;;4.60;93.83
34185;BME280;20454;48.100;11.776;2023-04-02T20:18:41;95786.06;;;4.55;93.71
34185;BME280;20454;48.100;11.776;2023-04-02T20:21:07;95782.22;;;4.52;93.65
34185;BME280;20454;48.100;11.776;2023-04-02T20:23:34;95795.19;;;4.46;94.47
34185;BME280;20454;48.100;11.776;2023-04-02T20:26:00;95790.78;;;4.40;94.77
34185;BME280;20454;48.100;11.776;2023-04-02T20:28:27;95796.56;;;4.39;95.35
34185;BME280;20454;48.100;11.776;2023-04-02T20:30:53;95800.41;;;4.33;95.10
34185;BME280;20454;48.100;11.776;2023-04-02T20:33:21;95810.34;;;4.29;95.16
34185;BME280;20454;48.100;11.776;2023-04-02T20:35:48;95808.69;;;4.23;95.38
34185;BME280;20454;48.100;11.776;2023-04-02T20:38:14;95813.63;;;4.16;95.53
34185;BME280;20454;48.100;11.776;2023-04-02T20:40:40;95813.06;;;4.14;95.81
34185;BME280;20454;48.100;11.776;2023-04-02T20:43:07;95819.69;;;4.13;96.06
34185;BME280;20454;48.100;11.776;2023-04-02T20:45:36;95827.94;;;4.08;96.41
34185;BME280;20454;48.100;11.776;2023-04-02T20:48:02;95822.13;;;4.04;96.61
34185;BME280;20454;48.100;11.776;2023-04-02T20:50:28;95834.84;;;4.05;97.04
34185;BME280;20454;48.100;11.776;2023-04-02T20:52:54;95833.16;;;4.04;97.19
34185;BME280;20454;48.100;11.776;2023-04-02T20:55:21;95843.34;;;4.04;97.31
34185;BME280;20454;48.100;11.776;2023-04-02T20:57:47;95849.97;;;4.03;97.80
34185;BME280;20454;48.100;11.776;2023-04-02T21:00:13;95846.63;;;4.01;98.57
34185;BME280;20454;48.100;11.776;2023-04-02T21:02:39;95848.03;;;3.98;98.34
34185;BME280;20454;48.100;11.776;2023-04-02T21:05:05;95853.81;;;3.97;98.89
34185;BME280;20454;48.100;11.776;2023-04-02T21:07:31;95858.47;;;3.91;98.90
34185;BME280;20454;48.100;11.776;2023-04-02T21:09:56;95859.56;;;3.85;98.92
34185;BME280;20454;48.100;11.776;2023-04-02T21:12:22;95854.06;;;3.85;99.88
34185;BME280;20454;48.100;11.776;2023-04-02T21:14:49;95867.53;;;3.82;99.88
34185;BME280;20454;48.100;11.776;2023-04-02T21:17:21;95871.66;;;3.79;100.00
34185;BME280;20454;48.100;11.776;2023-04-02T21:19:46;95864.75;;;3.77;100.00
34185;BME280;20454;48.100;11.776;2023-04-02T21:22:12;95867.50;;;3.77;100.00
34185;BME280;20454;48.100;11.776;2023-04-02T21:24:38;95865.31;;;3.74;100.00
34185;BME280;20454;48.100;11.776;2023-04-02T21:27:03;95877.38;;;3.73;100.00
34185;BME280;20454;48.100;11.776;2023-04-02T21:29:29;95867.78;;;3.70;100.00
34185;BME280;20454;48.100;11.776;2023-04-02T21:31:55;95881.25;;;3.72;100.00
34185;BME280;20454;48.100;11.776;2023-04-02T21:34:20;95887.59;;;3.72;100.00
34185;BME280;20454;48.100;11.776;2023-04-02T21:36:46;95880.69;;;3.70;100.00
34185;BME280;20454;48.100;11.776;2023-04-02T21:39:20;95879.84;;;3.69;100.00
34185;BME280;20454;48.100;11.776;2023-04-02T21:41:48;95874.91;;;3.66;100.00
34185;BME280;20454;48.100;11.776;2023-04-02T21:44:21;95888.69;;;3.71;100.00
34185;BME280;20454;48.100;11.776;2023-04-02T21:46:47;95879.59;;;3.71;100.00
34185;BME280;20454;48.100;11.776;2023-04-02T21:49:15;95878.78;;;3.70;100.00
34185;BME280;20454;48.100;11.776;2023-04-02T21:51:42;95884.28;;;3.70;100.00
34185;BME280;20454;48.100;11.776;2023-04-02T21:54:08;95891.69;;;3.70;100.00
34185;BME280;20454;48.100;11.776;2023-04-02T21:56:36;95890.03;;;3.64;100.00
34185;BME280;20454;48.100;11.776;2023-04-02T21:59:03;95884.50;;;3.64;100.00
34185;BME280;20454;48.100;11.776;2023-04-02T22:01:34;95887.25;;;3.64;100.00
34185;BME280;20454;48.100;11.776;2023-04-02T22:04:01;95898.56;;;3.67;100.00
34185;BME280;20454;48.100;11.776;2023-04-02T22:06:29;95892.50;;;3.65;100.00
34185;BME280;20454;48.100;11.776;2023-04-02T22:08:58;95894.41;;;3.65;100.00
34185;BME280;20454;48.100;11.776;2023-04-02T22:11:29;95901.56;;;3.66;100.00
34185;BME280;20454;48.100;11.776;2023-04-02T22:13:55;95902.13;;;3.63;100.00
34185;BME280;20454;48.100;11.776;2023-04-02T22:16:22;95904.63;;;3.64;100.00
34185;BME280;20454;48.100;11.776;2023-04-02T22:18:49;95899.09;;;3.59;100.00
34185;BME280;20454;48.100;11.776;2023-04-02T22:21:17;95899.63;;;3.56;100.00
34185;BME280;20454;48.100;11.776;2023-04-02T22:23:43;95901.28;;;3.57;100.00
34185;BME280;20454;48.100;11.776;2023-04-02T22:26:09;95912.53;;;3.56;100.00
34185;BME280;20454;48.100;11.776;2023-04-02T22:28:35;95908.41;;;3.53;100.00
34185;BME280;20454;48.100;11.776;2023-04-02T22:31:04;95906.47;;;3.49;100.00
34185;BME280;20454;48.100;11.776;2023-04-02T22:33:31;95911.97;;;3.49;100.00
34185;BME280;20454;48.100;11.776;2023-04-02T22:35:57;95909.75;;;3.46;100.00
34185;BME280;20454;48.100;11.776;2023-04-02T22:38:23;95923.22;;;3.47;100.00
34185;BME280;20454;48.100;11.776;2023-04-02T22:40:49;95917.72;;;3.42;100.00
34185;BME280;20454;48.100;11.776;2023-04-02T22:43:15;95917.41;;;3.39;100.00
34185;BME280;20454;48.100;11.776;2023-04-02T22:45:44;95918.78;;;3.36;100.00
34185;BME280;20454;48.100;11.776;2023-04-02T22:48:11;95913.00;;;3.38;100.00
34185;BME280;20454;48.100;11.776;2023-04-02T22:50:36;95924.00;;;3.38;100.00
34185;BME280;20454;48.100;11.776;2023-04-02T22:53:02;95927.59;;;3.38;100.00
34185;BME280;20454;48.100;11.776;2023-04-02T22:55:28;95928.69;;;3.37;100.00
34185;BME280;20454;48.100;11.776;2023-04-02T22:57:53;95924.28;;;3.36;100.00
34185;BME280;20454;48.100;11.776;2023-04-02T23:00:19;95933.91;;;3.39;100.00
34185;BME280;20454;48.100;11.776;2023-04-02T23:02:45;95933.59;;;3.35;100.00
34185;BME280;20454;48.100;11.776;2023-04-02T23:05:11;95938.59;;;3.38;100.00
34185;BME280;20454;48.100;11.776;2023-04-02T23:07:37;95918.78;;;3.36;100.00
34185;BME280;20454;48.100;11.776;2023-04-02T23:10:04;95921.25;;;3.33;100.00
34185;BME280;20454;48.100;11.776;2023-04-02T23:12:29;95928.09;;;3.35;100.00
34185;BME280;20454;48.100;11.776;2023-04-02T23:14:55;95932.78;;;3.35;100.00
34185;BME280;20454;48.100;11.776;2023-04-02T23:17:25;95939.69;;;3.37;100.00
34185;BME280;20454;48.100;11.776;2023-04-02T23:19:50;95927.28;;;3.35;100.00
34185;BME280;20454;48.100;11.776;2023-04-02T23:22:16;95935.53;;;3.35;100.00
34185;BME280;20454;48.100;11.776;2023-04-02T23:24:42;95942.44;;;3.37;100.00
34185;BME280;20454;48.100;11.776;2023-04-02T23:27:07;95934.69;;;3.34;100.00
34185;BME280;20454;48.100;11.776;2023-04-02T23:29:33;95926.44;;;3.34;100.00
34185;BME280;20454;48.100;11.776;2023-04-02T23:31:58;95934.72;;;3.39;100.00
34185;BME280;20454;48.100;11.776;2023-04-02T23:34:24;95933.09;;;3.38;100.00
34185;BME280;20454;48.100;11.776;2023-04-02T23:36:50;95931.47;;;3.42;100.00
34185;BME280;20454;48.100;11.776;2023-04-02T23:39:15;95933.38;;;3.42;100.00
34185;BME280;20454;48.100;11.776;2023-04-02T23:41:41;95927.88;;;3.42;100.00
34185;BME280;20454;48.100;11.776;2023-04-02T23:44:08;95927.63;;;3.43;100.00
34185;BME280;20454;48.100;11.776;2023-04-02T23:46:34;95935.03;;;3.43;100.00
34185;BME280;20454;48.100;11.776;2023-04-02T23:49:00;95916.59;;;3.38;100.00
34185;BME280;20454;48.100;11.776;2023-04-02T23:51:27;95918.53;;;3.43;100.00